KVRB/VRB METAR and TAF weather

Enter ICAO airport designator
Station Type Date Time Source
KVRB METAR 2019/12/10 18:53 UTC NOAA

KVRB 101853Z 15015KT 10SM FEW075 27/21 A3007 RMK AO2 SLP183 T02720211


Station Type Date Time Source
KVRB Decoded METAR 2019/12/10 18:53 UTC NOAA

VERO BEACH MUNICIPAL AIRPORT , FL, United States (KVRB) 27-39N 080-25W 10M
Dec 10, 2019 - 01:53 PM EST / 2019.12.10 1853 UTC
Wind: from the SSE (150 degrees) at 17 MPH (15 KT):0
Visibility: 10 mile(s):0
Sky conditions: mostly clear
Temperature: 81.0 F (27.2 C)
Dew Point: 70.0 F (21.1 C)
Relative Humidity: 69%
Pressure (altimeter): 30.07 in. Hg (1018 hPa)
ob: KVRB 101853Z 15015KT 10SM FEW075 27/21 A3007 RMK AO2 SLP183 T02720211
cycle: 19

Station Type Date Time Source
KVRB TAF 2019/12/10 18:28 UTC NOAA

TAF KVRB 101726Z 1018/1118 12013KT P6SM SCT030
FM110000 14006KT P6SM VCSH SCT020 SCT100
FM110800 VRB02KT 6SM BR MIFG SCT015 BKN035
TEMPO 1110/1113 3SM BR BKN015
FM111500 35007KT P6SM SCT020 BKN035

Example: see airport list